createdAt,value
2023-03-19T00:01:30.001Z,8.30
2023-03-19T00:03:56.702Z,10.10
2023-03-19T00:06:23.352Z,8.40
2023-03-19T00:08:49.943Z,8.40
2023-03-19T00:11:16.944Z,8.40
2023-03-19T00:13:43.547Z,8.40
2023-03-19T00:16:10.226Z,11.40
2023-03-19T00:18:37.328Z,8.30
2023-03-19T00:21:04.088Z,8.20
2023-03-19T00:23:31.312Z,8.20
2023-03-19T00:25:57.894Z,8.20
2023-03-19T00:28:24.587Z,8.20
2023-03-19T00:30:51.257Z,8.10
2023-03-19T00:33:17.984Z,8.20
2023-03-19T00:35:45.074Z,8.20
2023-03-19T00:38:11.791Z,9.70
2023-03-19T00:40:38.395Z,8.20
2023-03-19T00:43:05.198Z,8.20
2023-03-19T00:45:31.954Z,8.30
2023-03-19T00:47:58.651Z,8.30
2023-03-19T00:50:25.647Z,8.80
2023-03-19T00:52:52.415Z,8.40
2023-03-19T00:55:19.061Z,8.40
2023-03-19T00:57:46.031Z,8.40
2023-03-19T01:00:12.932Z,8.50
2023-03-19T01:02:39.540Z,8.40
2023-03-19T01:05:06.651Z,8.50
2023-03-19T01:07:33.348Z,8.40
2023-03-19T01:09:59.985Z,8.40
2023-03-19T01:12:26.708Z,8.40
2023-03-19T01:14:53.359Z,8.30
2023-03-19T01:17:19.991Z,7.90
2023-03-19T01:19:46.747Z,8.30
2023-03-19T01:22:14.196Z,8.30
2023-03-19T01:24:40.825Z,8.30
2023-03-19T01:27:08.220Z,8.30
2023-03-19T01:29:34.854Z,8.20
2023-03-19T01:32:01.625Z,8.30
2023-03-19T01:34:28.286Z,10.40
2023-03-19T01:36:55.379Z,8.20
2023-03-19T01:39:22.025Z,8.20
2023-03-19T01:41:48.701Z,8.90
2023-03-19T01:44:24.318Z,7.90
2023-03-19T01:46:51.119Z,7.80
2023-03-19T01:49:18.629Z,7.80
2023-03-19T01:51:46.375Z,7.90
2023-03-19T01:54:14.945Z,7.80
2023-03-19T01:56:43.017Z,7.60
2023-03-19T01:59:15.297Z,7.60
2023-03-19T02:01:47.173Z,7.60
2023-03-19T02:04:14.737Z,7.60
2023-03-19T02:06:43.012Z,7.60
2023-03-19T02:09:09.951Z,7.70
2023-03-19T02:11:38.021Z,7.80
2023-03-19T02:14:04.812Z,7.70
2023-03-19T02:16:31.857Z,7.80
2023-03-19T02:18:59.054Z,9.00
2023-03-19T02:21:25.797Z,7.80
2023-03-19T02:24:01.593Z,7.80
2023-03-19T02:26:29.373Z,7.70
2023-03-19T02:28:56.478Z,7.70
2023-03-19T02:31:23.775Z,7.70
2023-03-19T02:34:01.031Z,7.80
2023-03-19T02:36:37.567Z,7.70
2023-03-19T02:39:06.006Z,7.70
2023-03-19T02:41:34.335Z,7.70
2023-03-19T02:44:01.931Z,10.00
2023-03-19T02:46:28.790Z,7.70
2023-03-19T02:48:55.386Z,7.70
2023-03-19T02:51:22.029Z,9.00
2023-03-19T02:53:48.621Z,7.50
2023-03-19T02:56:15.387Z,7.50
2023-03-19T02:58:41.986Z,7.50
2023-03-19T03:01:08.689Z,7.50
2023-03-19T03:03:35.436Z,7.40
2023-03-19T03:06:02.062Z,7.40
2023-03-19T03:08:28.730Z,7.50
2023-03-19T03:10:55.470Z,7.50
2023-03-19T03:13:22.153Z,7.60
2023-03-19T03:15:48.797Z,7.60
2023-03-19T03:18:15.425Z,7.70
2023-03-19T03:20:43.304Z,7.70
2023-03-19T03:23:09.990Z,7.70
2023-03-19T03:25:36.910Z,9.90
2023-03-19T03:28:03.534Z,7.60
2023-03-19T03:30:30.465Z,10.50
2023-03-19T03:32:57.383Z,7.50
2023-03-19T03:35:24.089Z,7.40
2023-03-19T03:37:51.445Z,7.40
2023-03-19T03:40:18.345Z,8.40
2023-03-19T03:42:45.434Z,7.30
2023-03-19T03:45:12.387Z,9.50
2023-03-19T03:47:39.673Z,7.30
2023-03-19T03:50:07.235Z,8.60
2023-03-19T03:52:34.276Z,7.30
2023-03-19T03:55:01.175Z,7.40
2023-03-19T03:57:27.831Z,7.30
2023-03-19T03:59:54.640Z,7.30
2023-03-19T04:02:21.791Z,7.30
2023-03-19T04:04:48.792Z,7.30
2023-03-19T04:07:15.835Z,7.20
2023-03-19T04:09:42.838Z,7.20
2023-03-19T04:12:09.502Z,7.20
2023-03-19T04:14:36.840Z,7.20
2023-03-19T04:17:05.063Z,9.30
2023-03-19T04:19:31.820Z,7.20
2023-03-19T04:21:59.648Z,7.30
2023-03-19T04:24:26.301Z,7.20
2023-03-19T04:26:53.362Z,7.20
2023-03-19T04:29:20.024Z,7.20
2023-03-19T04:31:46.786Z,7.20
2023-03-19T04:34:13.416Z,7.20
2023-03-19T04:36:40.026Z,8.30
2023-03-19T04:39:06.656Z,7.20
2023-03-19T04:41:33.254Z,7.30
2023-03-19T04:43:59.882Z,7.20
2023-03-19T04:46:26.626Z,8.30
2023-03-19T04:48:53.315Z,8.10
2023-03-19T04:51:21.555Z,7.10
2023-03-19T04:53:48.982Z,7.10
2023-03-19T04:56:18.963Z,7.10
2023-03-19T04:58:46.099Z,7.10
2023-03-19T05:01:12.880Z,7.10
2023-03-19T05:03:39.557Z,7.10
2023-03-19T05:06:06.861Z,7.10
2023-03-19T05:08:33.840Z,7.10
2023-03-19T05:11:00.773Z,7.90
2023-03-19T05:13:27.431Z,7.10
2023-03-19T05:15:55.176Z,7.10
2023-03-19T05:18:22.210Z,7.10
2023-03-19T05:20:49.395Z,7.10
2023-03-19T05:23:16.041Z,7.20
2023-03-19T05:25:42.853Z,7.20
2023-03-19T05:28:09.518Z,7.20
2023-03-19T05:30:36.308Z,8.80
2023-03-19T05:33:03.478Z,7.10
2023-03-19T05:35:30.702Z,7.90
2023-03-19T05:37:57.475Z,7.00
2023-03-19T05:40:24.429Z,7.10
2023-03-19T05:42:51.207Z,7.40
2023-03-19T05:45:18.278Z,7.10
2023-03-19T05:47:47.014Z,7.10
2023-03-19T05:50:13.601Z,7.00
2023-03-19T05:52:40.166Z,7.00
2023-03-19T05:55:06.939Z,7.00
2023-03-19T05:57:33.602Z,7.00
2023-03-19T06:00:00.267Z,7.00
2023-03-19T06:02:27.194Z,7.00
2023-03-19T06:04:53.841Z,7.00
2023-03-19T06:07:20.637Z,7.00
2023-03-19T06:09:47.298Z,7.00
2023-03-19T06:12:14.018Z,7.00
2023-03-19T06:14:40.795Z,7.00
2023-03-19T06:17:07.499Z,7.00
2023-03-19T06:19:34.127Z,7.00
2023-03-19T06:22:01.038Z,7.10
2023-03-19T06:24:30.474Z,7.10
2023-03-19T06:26:57.207Z,7.10
2023-03-19T06:29:23.863Z,7.20
2023-03-19T06:31:50.537Z,9.50
2023-03-19T06:34:17.258Z,7.20
2023-03-19T06:36:43.898Z,8.70
2023-03-19T06:39:10.590Z,7.30
2023-03-19T06:41:37.311Z,7.30
2023-03-19T06:44:04.445Z,7.30
2023-03-19T06:46:31.476Z,7.30
2023-03-19T06:48:58.146Z,7.40
2023-03-19T06:51:27.879Z,7.40
2023-03-19T06:53:54.996Z,7.40
2023-03-19T06:56:21.795Z,7.40
2023-03-19T06:58:48.476Z,7.40
2023-03-19T07:01:15.147Z,7.40
2023-03-19T07:03:41.805Z,7.50
2023-03-19T07:06:08.407Z,7.50
2023-03-19T07:08:35.026Z,7.50
2023-03-19T07:11:05.636Z,10.10
2023-03-19T07:13:33.132Z,7.60
2023-03-19T07:16:00.038Z,7.70
2023-03-19T07:18:27.118Z,9.90
2023-03-19T07:20:53.854Z,7.70
2023-03-19T07:23:20.522Z,9.00
2023-03-19T07:25:47.794Z,7.80
2023-03-19T07:28:15.421Z,8.10
2023-03-19T07:30:42.131Z,8.00
2023-03-19T07:33:08.890Z,8.10
2023-03-19T07:35:35.774Z,10.10
2023-03-19T07:38:02.829Z,8.20
2023-03-19T07:40:29.511Z,8.30
2023-03-19T07:42:56.178Z,8.30
2023-03-19T07:45:22.914Z,8.40
2023-03-19T07:47:50.480Z,8.50
2023-03-19T07:50:17.332Z,8.50
2023-03-19T07:52:45.892Z,8.50
2023-03-19T07:55:12.567Z,8.60
2023-03-19T07:57:39.550Z,8.70
2023-03-19T08:00:06.461Z,8.70
2023-03-19T08:02:33.155Z,8.70
2023-03-19T08:05:02.190Z,10.30
2023-03-19T08:07:28.790Z,8.90
2023-03-19T08:09:55.620Z,9.10
2023-03-19T08:12:22.219Z,9.20
2023-03-19T08:14:48.842Z,9.30
2023-03-19T08:17:15.919Z,9.30
2023-03-19T08:19:42.894Z,9.40
2023-03-19T08:22:09.940Z,9.50
2023-03-19T08:24:36.673Z,9.50
2023-03-19T08:27:03.829Z,9.60
2023-03-19T08:29:30.971Z,9.60
2023-03-19T08:31:58.783Z,9.70
2023-03-19T08:34:25.493Z,10.40
2023-03-19T08:36:52.037Z,10.90
2023-03-19T08:39:18.646Z,12.10
2023-03-19T08:41:45.237Z,10.10
2023-03-19T08:44:11.789Z,10.20
2023-03-19T08:46:38.564Z,10.30
2023-03-19T08:49:05.688Z,10.30
2023-03-19T08:51:32.724Z,12.90
2023-03-19T08:53:59.571Z,10.60
2023-03-19T08:56:26.212Z,12.70
2023-03-19T08:58:52.866Z,11.80
2023-03-19T09:01:19.551Z,12.10
2023-03-19T09:03:46.460Z,13.00
2023-03-19T09:06:14.471Z,10.90
2023-03-19T09:08:42.173Z,10.90
2023-03-19T09:11:10.358Z,12.80
2023-03-19T09:13:37.430Z,11.80
2023-03-19T09:16:04.598Z,11.00
2023-03-19T09:18:31.549Z,11.00
2023-03-19T09:20:58.220Z,11.20
2023-03-19T09:23:24.883Z,12.70
2023-03-19T09:25:51.639Z,12.40
2023-03-19T09:28:18.472Z,13.10
2023-03-19T09:30:45.659Z,11.90
2023-03-19T09:33:12.336Z,12.00
2023-03-19T09:35:39.838Z,14.10
2023-03-19T09:38:07.033Z,14.60
2023-03-19T09:40:36.617Z,14.20
2023-03-19T09:43:22.284Z,13.70
2023-03-19T09:45:49.076Z,12.20
2023-03-19T09:48:28.899Z,12.30
2023-03-19T09:50:56.039Z,14.10
2023-03-19T09:53:22.603Z,12.70
2023-03-19T09:55:54.088Z,14.50
2023-03-19T09:58:22.472Z,12.50
2023-03-19T10:00:50.536Z,12.50
2023-03-19T10:03:36.074Z,12.60
2023-03-19T10:06:02.724Z,12.60
2023-03-19T10:08:41.862Z,13.50
2023-03-19T10:11:09.458Z,12.80
2023-03-19T10:13:47.926Z,12.80
2023-03-19T10:16:21.897Z,12.80
2023-03-19T10:18:50.780Z,12.70
2023-03-19T10:21:20.865Z,13.50
2023-03-19T10:23:52.540Z,12.80
2023-03-19T10:26:20.676Z,12.90
2023-03-19T10:29:06.011Z,13.00
2023-03-19T10:31:38.727Z,13.00
2023-03-19T10:34:22.955Z,13.10
2023-03-19T10:36:49.568Z,13.10
2023-03-19T10:39:17.662Z,13.20
2023-03-19T10:41:49.187Z,15.30
2023-03-19T10:44:28.186Z,15.20
2023-03-19T10:46:57.200Z,13.40
2023-03-19T10:49:24.154Z,14.60
2023-03-19T10:51:51.077Z,14.10
2023-03-19T10:54:19.621Z,16.00
2023-03-19T10:56:46.879Z,13.50
2023-03-19T10:59:33.467Z,15.80
2023-03-19T11:02:14.511Z,13.50
2023-03-19T11:04:41.137Z,13.70
2023-03-19T11:07:15.326Z,13.90
2023-03-19T11:09:44.500Z,12.90
2023-03-19T11:12:19.793Z,14.10
2023-03-19T11:14:51.320Z,14.30
2023-03-19T11:17:21.385Z,14.60
2023-03-19T11:19:58.186Z,14.90
2023-03-19T11:22:27.232Z,12.40
2023-03-19T11:24:55.813Z,16.80
2023-03-19T11:27:29.813Z,15.20
2023-03-19T11:29:56.832Z,15.10
2023-03-19T11:32:43.046Z,15.90
2023-03-19T11:35:12.690Z,15.00
2023-03-19T11:37:42.350Z,14.90
2023-03-19T11:40:18.127Z,14.90
2023-03-19T11:43:00.334Z,14.90
2023-03-19T11:45:42.034Z,15.00
2023-03-19T11:48:15.526Z,15.20
2023-03-19T11:50:47.755Z,15.10
2023-03-19T11:53:31.903Z,15.20
2023-03-19T11:56:01.862Z,15.20
2023-03-19T11:58:28.621Z,15.20
2023-03-19T12:01:01.548Z,16.00
2023-03-19T12:03:37.083Z,15.30
2023-03-19T12:06:09.854Z,16.50
2023-03-19T12:08:36.396Z,15.60
2023-03-19T12:11:22.145Z,15.70
2023-03-19T12:13:48.756Z,15.70
2023-03-19T12:16:20.553Z,15.70
2023-03-19T12:18:47.227Z,17.70
2023-03-19T12:21:17.394Z,15.30
2023-03-19T12:24:03.602Z,15.10
2023-03-19T12:27:00.059Z,15.00
2023-03-19T12:29:38.060Z,14.80
2023-03-19T12:32:17.845Z,14.80
2023-03-19T12:34:51.144Z,14.90
2023-03-19T12:37:23.893Z,14.90
2023-03-19T12:40:10.720Z,14.90
2023-03-19T12:42:38.688Z,14.90
2023-03-19T12:45:19.954Z,14.90
2023-03-19T12:47:47.073Z,15.00
2023-03-19T12:50:15.359Z,15.20
2023-03-19T12:52:43.233Z,15.20
2023-03-19T12:55:15.798Z,18.60
2023-03-19T12:57:54.276Z,17.40
2023-03-19T13:00:30.133Z,15.20
2023-03-19T13:03:03.358Z,15.40
2023-03-19T13:05:39.009Z,15.50
2023-03-19T13:08:17.919Z,15.60
2023-03-19T13:10:44.515Z,15.80
2023-03-19T13:13:28.457Z,15.90
2023-03-19T13:15:58.195Z,15.70
2023-03-19T13:18:32.668Z,15.60
2023-03-19T13:21:08.500Z,17.10
2023-03-19T13:23:37.067Z,15.30
2023-03-19T13:26:07.909Z,15.80
2023-03-19T13:28:36.722Z,15.20
2023-03-19T13:31:05.259Z,16.10
2023-03-19T13:33:33.325Z,15.20
2023-03-19T13:36:03.216Z,15.40
2023-03-19T13:38:50.252Z,15.40
2023-03-19T13:41:35.432Z,15.50
2023-03-19T13:44:20.499Z,15.30
2023-03-19T13:46:47.197Z,15.20
2023-03-19T13:49:13.957Z,15.10
2023-03-19T13:51:40.599Z,15.00
2023-03-19T13:54:11.679Z,14.90
2023-03-19T13:56:58.494Z,14.80
2023-03-19T13:59:27.687Z,14.70
2023-03-19T14:01:54.968Z,15.10
2023-03-19T14:04:47.870Z,15.50
2023-03-19T14:07:17.524Z,14.60
2023-03-19T14:10:04.709Z,14.50
2023-03-19T14:12:32.698Z,14.50
2023-03-19T14:15:02.025Z,14.60
2023-03-19T14:17:32.639Z,14.60
2023-03-19T14:20:24.704Z,15.30
2023-03-19T14:23:11.417Z,14.70
2023-03-19T14:25:57.074Z,14.60
2023-03-19T14:28:32.921Z,14.50
2023-03-19T14:30:59.570Z,14.80
2023-03-19T14:33:28.991Z,16.10
2023-03-19T14:35:56.608Z,14.40
2023-03-19T14:38:23.175Z,14.50
2023-03-19T14:40:52.990Z,14.40
2023-03-19T14:43:38.433Z,14.40
2023-03-19T14:46:05.487Z,14.40
2023-03-19T14:48:50.813Z,14.40
2023-03-19T14:51:34.002Z,14.40
2023-03-19T14:54:21.440Z,14.40
2023-03-19T14:56:48.520Z,14.40
2023-03-19T14:59:16.009Z,14.30
2023-03-19T15:01:46.085Z,14.40
2023-03-19T15:04:14.246Z,15.80
2023-03-19T15:06:41.964Z,15.30
2023-03-19T15:09:26.744Z,16.50
2023-03-19T15:11:56.522Z,14.40
2023-03-19T15:14:26.177Z,14.50
2023-03-19T15:17:11.634Z,14.60
2023-03-19T15:19:38.997Z,14.60
2023-03-19T15:22:11.452Z,15.50
2023-03-19T15:24:38.091Z,14.60
2023-03-19T15:27:16.217Z,17.10
2023-03-19T15:29:42.811Z,14.70
2023-03-19T15:32:11.170Z,16.90
2023-03-19T15:34:39.465Z,14.70
2023-03-19T15:37:12.107Z,14.60
2023-03-19T15:39:49.336Z,14.50
2023-03-19T15:42:16.317Z,14.50
2023-03-19T15:44:45.015Z,15.20
2023-03-19T15:47:13.795Z,15.80
2023-03-19T15:50:00.717Z,17.40
2023-03-19T15:52:30.356Z,15.30
2023-03-19T15:54:57.115Z,14.90
2023-03-19T15:57:24.909Z,14.10
2023-03-19T15:59:52.527Z,16.10
2023-03-19T16:02:26.028Z,14.20
2023-03-19T16:05:23.103Z,14.10
2023-03-19T16:07:43.583Z,15.60
2023-03-19T16:10:28.468Z,13.90
2023-03-19T16:12:56.053Z,13.80
2023-03-19T16:15:32.724Z,14.40
2023-03-19T16:18:20.690Z,13.70
2023-03-19T16:20:59.293Z,13.50
2023-03-19T16:23:29.592Z,13.40
2023-03-19T16:25:56.566Z,14.40
2023-03-19T16:28:26.144Z,13.20
2023-03-19T16:30:52.882Z,14.40
2023-03-19T16:33:20.877Z,15.20
2023-03-19T16:35:47.623Z,13.50
2023-03-19T16:38:24.613Z,14.10
2023-03-19T16:41:09.911Z,12.80
2023-03-19T16:43:36.940Z,12.70
2023-03-19T16:46:06.207Z,14.00
2023-03-19T16:48:32.782Z,14.40
2023-03-19T16:50:59.441Z,12.40
2023-03-19T16:53:28.616Z,12.90
2023-03-19T16:55:56.454Z,14.10
2023-03-19T16:58:27.790Z,12.60
2023-03-19T17:00:54.395Z,14.00
2023-03-19T17:03:20.963Z,12.70
2023-03-19T17:05:48.188Z,11.80
2023-03-19T17:08:14.962Z,12.60
2023-03-19T17:10:46.373Z,12.70
2023-03-19T17:13:18.507Z,11.60
2023-03-19T17:15:45.671Z,11.60
2023-03-19T17:18:17.233Z,13.20
2023-03-19T17:20:55.400Z,13.80
2023-03-19T17:23:26.988Z,11.40
2023-03-19T17:25:54.434Z,13.60
2023-03-19T17:28:21.220Z,12.20
2023-03-19T17:30:48.093Z,12.80
2023-03-19T17:33:21.414Z,13.80
2023-03-19T17:35:48.037Z,11.50
2023-03-19T17:38:16.944Z,11.30
2023-03-19T17:40:43.913Z,11.90
2023-03-19T17:43:12.058Z,11.10
2023-03-19T17:45:40.255Z,11.20
2023-03-19T17:48:11.112Z,12.40
2023-03-19T17:50:37.778Z,11.00
2023-03-19T17:53:05.955Z,13.50
2023-03-19T17:55:32.726Z,11.70
2023-03-19T17:57:59.295Z,12.50
2023-03-19T18:00:25.920Z,10.80
2023-03-19T18:02:53.884Z,10.80
2023-03-19T18:05:21.904Z,10.80
2023-03-19T18:07:50.992Z,12.30
2023-03-19T18:10:22.564Z,11.10
2023-03-19T18:12:53.482Z,10.70
2023-03-19T18:15:20.444Z,13.00
2023-03-19T18:17:51.856Z,12.00
2023-03-19T18:20:19.950Z,10.60
2023-03-19T18:22:46.578Z,13.60
2023-03-19T18:25:24.055Z,10.50
2023-03-19T18:27:51.877Z,10.50
2023-03-19T18:30:19.654Z,10.40
2023-03-19T18:32:47.651Z,10.30
2023-03-19T18:35:15.435Z,12.30
2023-03-19T18:37:42.988Z,10.10
2023-03-19T18:40:13.691Z,10.00
2023-03-19T18:42:40.528Z,9.90
2023-03-19T18:45:07.467Z,9.80
2023-03-19T18:47:36.053Z,9.70
2023-03-19T18:50:03.041Z,9.60
2023-03-19T18:52:29.679Z,9.60
2023-03-19T18:54:56.454Z,9.50
2023-03-19T18:57:23.054Z,9.60
2023-03-19T18:59:49.678Z,9.60
2023-03-19T19:02:21.589Z,11.50
2023-03-19T19:04:48.340Z,9.60
2023-03-19T19:07:15.364Z,9.60
2023-03-19T19:09:42.117Z,9.70
2023-03-19T19:12:10.996Z,11.70
2023-03-19T19:14:37.785Z,9.70
2023-03-19T19:17:04.850Z,9.80
2023-03-19T19:19:31.468Z,9.80
2023-03-19T19:21:58.112Z,10.50
2023-03-19T19:24:24.788Z,13.10
2023-03-19T19:26:54.105Z,11.60
2023-03-19T19:29:25.207Z,9.90
2023-03-19T19:31:52.753Z,9.90
2023-03-19T19:34:19.378Z,10.30
2023-03-19T19:36:46.052Z,9.80
2023-03-19T19:39:13.077Z,9.80
2023-03-19T19:41:39.857Z,11.60
2023-03-19T19:44:06.891Z,12.50
2023-03-19T19:46:33.668Z,9.60
2023-03-19T19:49:00.410Z,9.60
2023-03-19T19:51:27.708Z,10.50
2023-03-19T19:53:54.564Z,10.60
2023-03-19T19:56:22.413Z,9.50
2023-03-19T19:58:50.568Z,9.40
2023-03-19T20:01:18.565Z,9.30
2023-03-19T20:03:45.726Z,9.30
2023-03-19T20:06:12.700Z,11.90
2023-03-19T20:08:39.821Z,9.00
2023-03-19T20:11:25.566Z,11.40
2023-03-19T20:13:54.543Z,8.70
2023-03-19T20:16:22.818Z,10.80
2023-03-19T20:18:50.967Z,8.60
2023-03-19T20:21:17.655Z,8.60
2023-03-19T20:23:44.804Z,8.50
2023-03-19T20:26:16.139Z,8.40
2023-03-19T20:28:44.225Z,8.30
2023-03-19T20:31:37.606Z,8.30
2023-03-19T20:34:04.386Z,8.10
2023-03-19T20:36:30.947Z,8.10
2023-03-19T20:38:57.713Z,7.80
2023-03-19T20:41:29.044Z,9.60
2023-03-19T20:43:56.402Z,7.80
2023-03-19T20:46:24.776Z,7.70
2023-03-19T20:48:51.652Z,10.10
2023-03-19T20:51:19.933Z,9.60
2023-03-19T20:53:48.391Z,7.40
2023-03-19T20:56:18.582Z,8.10
2023-03-19T20:58:45.662Z,7.30
2023-03-19T21:01:13.246Z,7.40
2023-03-19T21:03:39.926Z,7.30
2023-03-19T21:06:12.982Z,7.70
2023-03-19T21:08:42.461Z,6.00
2023-03-19T21:11:19.228Z,7.30
2023-03-19T21:13:48.044Z,7.10
2023-03-19T21:16:17.494Z,7.20
2023-03-19T21:18:44.777Z,8.60
2023-03-19T21:21:13.749Z,7.20
2023-03-19T21:23:43.185Z,7.30
2023-03-19T21:26:15.741Z,7.30
2023-03-19T21:28:42.793Z,7.20
2023-03-19T21:31:20.549Z,7.20
2023-03-19T21:33:48.506Z,7.10
2023-03-19T21:36:15.285Z,7.20
2023-03-19T21:38:41.993Z,7.10
2023-03-19T21:41:15.532Z,7.10
2023-03-19T21:43:47.753Z,10.10
2023-03-19T21:46:24.244Z,7.00
2023-03-19T21:48:52.020Z,6.90
2023-03-19T21:51:18.642Z,8.10
2023-03-19T21:53:45.747Z,7.00
2023-03-19T21:56:19.310Z,8.10
2023-03-19T21:58:46.805Z,6.80
2023-03-19T22:01:18.086Z,6.80
2023-03-19T22:03:45.028Z,6.80
2023-03-19T22:06:12.486Z,6.80
2023-03-19T22:08:39.337Z,9.10
2023-03-19T22:11:13.296Z,10.10
2023-03-19T22:13:40.830Z,7.10
2023-03-19T22:16:15.209Z,7.30
2023-03-19T22:18:42.056Z,7.40
2023-03-19T22:21:11.180Z,7.60
2023-03-19T22:23:37.841Z,7.70
2023-03-19T22:26:04.548Z,10.20
2023-03-19T22:28:32.393Z,7.90
2023-03-19T22:31:00.253Z,8.00
2023-03-19T22:33:30.165Z,8.00
2023-03-19T22:35:56.936Z,8.10
2023-03-19T22:38:23.703Z,8.10
2023-03-19T22:40:51.639Z,8.10
2023-03-19T22:43:21.345Z,10.60
2023-03-19T22:45:51.981Z,8.20
2023-03-19T22:48:18.633Z,8.20
2023-03-19T22:50:45.545Z,11.30
2023-03-19T22:53:28.891Z,8.20
2023-03-19T22:55:55.959Z,8.30
2023-03-19T22:58:23.129Z,8.40
2023-03-19T23:00:49.900Z,11.00
2023-03-19T23:03:24.732Z,8.50
2023-03-19T23:05:56.250Z,8.50
2023-03-19T23:08:22.910Z,8.50
2023-03-19T23:10:51.192Z,8.60
2023-03-19T23:13:18.163Z,8.50
2023-03-19T23:15:45.239Z,8.60
2023-03-19T23:18:17.647Z,8.60
2023-03-19T23:20:44.710Z,8.50
2023-03-19T23:23:12.663Z,8.50
2023-03-19T23:25:39.706Z,8.50
2023-03-19T23:28:06.453Z,8.40
2023-03-19T23:30:33.503Z,8.40
2023-03-19T23:33:01.784Z,11.10
2023-03-19T23:35:29.547Z,8.40
2023-03-19T23:37:56.709Z,8.40
2023-03-19T23:40:25.647Z,10.80
2023-03-19T23:42:54.589Z,8.40
2023-03-19T23:45:31.420Z,8.30
2023-03-19T23:47:59.137Z,8.30
2023-03-19T23:50:26.263Z,8.30
2023-03-19T23:52:53.167Z,8.30
2023-03-19T23:55:19.858Z,8.20
2023-03-19T23:57:47.014Z,8.20
